FSBRASIL

...



 INFORMAÇÕES METEOROLÓGICAS
METAR FOR SBCY
ADDS - METARS form results

(1318 UTC 09 May 2021)
Data provider http://aviationweather.gov/metar/data/
 
METAR text: SBCY 091300Z 20005KT CAVOK 23/18 Q1019
Conditions at: SBCY (CUIABA/MARECHAL , BR) observed 1300 UTC 09 May 2021
Temperature: 23.0°C (73°F)
Dewpoint: 18.0°C (64°F) [RH = 73%]
Pressure (altimeter): 30.09 inches Hg (1019.0 mb)
Winds: from the SSW (200 degrees) at 6 MPH (5 knots; 2.6 m/s)
Visibility: 6 or more miles (10+ km)
Ceiling: ceiling and visibility are OK
Clouds: unknown
Weather: no significant weather observed at this time

Forecast for: SBCY (CUIABA/MARECHAL , BR)
Text: TAF SBCY 090900Z 0912/1012 15005KT 9999 SCT020 TX30/0918Z TN22/1007Z RMK PHD
Forecast period: 1200 UTC 09 May 2021 to 1200 UTC 10 May 2021
Forecast type: FROM: standard forecast or significant change
Winds: from the SSE (150 degrees) at 6 MPH (5 knots; 2.6 m/s)
Visibility: 6 or more miles (10+ km)
Ceiling: at least 12,000 feet AGL
Clouds: scattered clouds at 2000 feet AGL
Weather: no significant weather forecast for this period

 MAPA DO AEROPORTO

 INFORMAÇÕES DA PISTA